sensor_id;sensor_type;location;lat;lon;timestamp;pressure;altitude;pressure_sealevel;temperature;humidity
3178;BME280;38141;42.666;23.344;2023-09-19T00:01:40;95020.97;;;17.63;100.00
3178;BME280;38141;42.666;23.344;2023-09-19T00:04:08;95060.94;;;17.81;100.00
3178;BME280;38141;42.666;23.344;2023-09-19T00:06:38;95069.56;;;17.79;100.00
3178;BME280;38141;42.666;23.344;2023-09-19T00:09:05;95038.81;;;17.48;100.00
3178;BME280;38141;42.666;23.344;2023-09-19T00:11:36;95024.72;;;17.26;100.00
3178;BME280;38141;42.666;23.344;2023-09-19T00:14:03;95043.34;;;17.58;100.00
3178;BME280;38141;42.666;23.344;2023-09-19T00:16:30;95006.19;;;17.14;100.00
3178;BME280;38141;42.666;23.344;2023-09-19T00:18:58;95053.47;;;17.61;100.00
3178;BME280;38141;42.666;23.344;2023-09-19T00:21:31;95058.25;;;17.54;100.00
3178;BME280;38141;42.666;23.344;2023-09-19T00:23:58;95026.81;;;17.42;100.00
3178;BME280;38141;42.666;23.344;2023-09-19T00:26:25;95024.47;;;17.41;100.00
3178;BME280;38141;42.666;23.344;2023-09-19T00:28:56;95023.94;;;17.49;100.00
3178;BME280;38141;42.666;23.344;2023-09-19T00:31:30;95045.72;;;17.56;100.00
3178;BME280;38141;42.666;23.344;2023-09-19T00:34:00;95024.72;;;17.26;100.00
3178;BME280;38141;42.666;23.344;2023-09-19T00:36:31;94980.28;;;16.76;100.00
3178;BME280;38141;42.666;23.344;2023-09-19T00:38:59;95017.28;;;17.04;100.00
3178;BME280;38141;42.666;23.344;2023-09-19T00:41:26;95046.81;;;17.39;100.00
3178;BME280;38141;42.666;23.344;2023-09-19T00:43:55;94936.84;;;16.58;100.00
3178;BME280;38141;42.666;23.344;2023-09-19T00:46:22;94980.34;;;16.96;100.00
3178;BME280;38141;42.666;23.344;2023-09-19T00:48:51;94967.28;;;16.83;100.00
3178;BME280;38141;42.666;23.344;2023-09-19T00:51:20;94982.66;;;16.97;100.00
3178;BME280;38141;42.666;23.344;2023-09-19T00:53:48;95026.41;;;17.20;100.00
3178;BME280;38141;42.666;23.344;2023-09-19T00:56:15;95040.38;;;17.26;100.00
3178;BME280;38141;42.666;23.344;2023-09-19T00:58:44;95002.97;;;16.96;100.00
3178;BME280;38141;42.666;23.344;2023-09-19T01:01:12;95032.75;;;17.37;100.00
3178;BME280;38141;42.666;23.344;2023-09-19T01:03:40;94963.31;;;16.88;100.00
3178;BME280;38141;42.666;23.344;2023-09-19T01:06:08;95035.56;;;17.10;100.00
3178;BME280;38141;42.666;23.344;2023-09-19T01:08:35;95034.13;;;17.02;100.00
3178;BME280;38141;42.666;23.344;2023-09-19T01:11:10;95021.72;;;16.98;100.00
3178;BME280;38141;42.666;23.344;2023-09-19T01:13:47;95057.06;;;16.85;100.00
3178;BME280;38141;42.666;23.344;2023-09-19T01:16:20;95038.31;;;16.83;100.00
3178;BME280;38141;42.666;23.344;2023-09-19T01:18:55;94975.31;;;16.40;100.00
3178;BME280;38141;42.666;23.344;2023-09-19T01:21:28;95034.34;;;16.88;100.00
3178;BME280;38141;42.666;23.344;2023-09-19T01:27:43;95045.38;;;17.08;100.00
3178;BME280;38141;42.666;23.344;2023-09-19T01:30:22;95045.41;;;17.04;100.00
3178;BME280;38141;42.666;23.344;2023-09-19T01:32:53;95032.34;;;16.92;100.00
3178;BME280;38141;42.666;23.344;2023-09-19T01:35:20;95052.38;;;17.09;100.00
3178;BME280;38141;42.666;23.344;2023-09-19T01:37:47;95036.88;;;17.02;100.00
3178;BME280;38141;42.666;23.344;2023-09-19T01:40:19;95045.06;;;17.02;100.00
3178;BME280;38141;42.666;23.344;2023-09-19T01:42:52;94987.22;;;16.54;100.00
3178;BME280;38141;42.666;23.344;2023-09-19T01:45:28;94966.13;;;16.54;100.00
3178;BME280;38141;42.666;23.344;2023-09-19T01:48:19;94995.66;;;16.66;100.00
3178;BME280;38141;42.666;23.344;2023-09-19T01:50:55;95042.75;;;17.01;100.00
3178;BME280;38141;42.666;23.344;2023-09-19T01:53:26;94984.66;;;16.70;100.00
3178;BME280;38141;42.666;23.344;2023-09-19T01:55:57;94988.19;;;16.70;100.00
3178;BME280;38141;42.666;23.344;2023-09-19T01:58:30;95042.56;;;17.11;100.00
3178;BME280;38141;42.666;23.344;2023-09-19T02:01:01;95046.38;;;17.17;100.00
3178;BME280;38141;42.666;23.344;2023-09-19T02:03:31;95048.38;;;17.37;100.00
3178;BME280;38141;42.666;23.344;2023-09-19T02:06:00;94984.91;;;16.79;100.00
3178;BME280;38141;42.666;23.344;2023-09-19T02:08:28;95063.25;;;17.35;100.00
3178;BME280;38141;42.666;23.344;2023-09-19T02:10:59;95004.28;;;16.88;100.00
3178;BME280;38141;42.666;23.344;2023-09-19T02:13:26;94987.78;;;16.41;100.00
3178;BME280;38141;42.666;23.344;2023-09-19T02:15:53;95057.31;;;16.94;100.00
3178;BME280;38141;42.666;23.344;2023-09-19T02:18:22;95031.34;;;17.06;100.00
3178;BME280;38141;42.666;23.344;2023-09-19T02:20:49;95048.78;;;16.88;100.00
3178;BME280;38141;42.666;23.344;2023-09-19T02:23:18;95044.19;;;16.82;100.00
3178;BME280;38141;42.666;23.344;2023-09-19T02:25:52;95053.09;;;16.86;100.00
3178;BME280;38141;42.666;23.344;2023-09-19T02:28:19;95008.03;;;16.74;100.00
3178;BME280;38141;42.666;23.344;2023-09-19T02:30:47;95048.94;;;16.78;100.00
3178;BME280;38141;42.666;23.344;2023-09-19T02:33:16;94981.75;;;16.27;100.00
3178;BME280;38141;42.666;23.344;2023-09-19T02:35:45;94978.94;;;16.34;100.00
3178;BME280;38141;42.666;23.344;2023-09-19T02:38:12;95031.75;;;16.51;100.00
3178;BME280;38141;42.666;23.344;2023-09-19T02:40:43;95039.53;;;16.52;100.00
3178;BME280;38141;42.666;23.344;2023-09-19T02:43:10;94995.22;;;16.68;100.00
3178;BME280;38141;42.666;23.344;2023-09-19T02:45:38;95022.28;;;16.85;100.00
3178;BME280;38141;42.666;23.344;2023-09-19T02:48:05;94949.03;;;16.50;100.00
3178;BME280;38141;42.666;23.344;2023-09-19T02:53:01;95032.03;;;17.10;100.00
3178;BME280;38141;42.666;23.344;2023-09-19T02:55:30;95010.00;;;17.20;100.00
3178;BME280;38141;42.666;23.344;2023-09-19T02:57:57;95035.38;;;17.21;100.00
3178;BME280;38141;42.666;23.344;2023-09-19T03:00:24;95012.84;;;17.13;100.00
3178;BME280;38141;42.666;23.344;2023-09-19T03:02:53;94942.06;;;16.72;100.00
3178;BME280;38141;42.666;23.344;2023-09-19T03:05:21;95012.44;;;17.15;100.00
3178;BME280;38141;42.666;23.344;2023-09-19T03:07:49;94987.72;;;16.99;100.00
3178;BME280;38141;42.666;23.344;2023-09-19T03:10:19;94998.94;;;17.04;100.00
3178;BME280;38141;42.666;23.344;2023-09-19T03:12:46;94971.19;;;16.82;100.00
3178;BME280;38141;42.666;23.344;2023-09-19T03:15:13;95002.91;;;17.23;100.00
3178;BME280;38141;42.666;23.344;2023-09-19T03:17:43;94951.13;;;16.93;100.00
3178;BME280;38141;42.666;23.344;2023-09-19T03:20:11;94988.78;;;17.05;100.00
3178;BME280;38141;42.666;23.344;2023-09-19T03:22:39;94985.50;;;16.67;100.00
3178;BME280;38141;42.666;23.344;2023-09-19T03:25:07;94969.72;;;16.51;100.00
3178;BME280;38141;42.666;23.344;2023-09-19T03:27:39;94992.09;;;16.69;100.00
3178;BME280;38141;42.666;23.344;2023-09-19T03:30:07;95000.41;;;16.85;100.00
3178;BME280;38141;42.666;23.344;2023-09-19T03:32:34;94994.00;;;16.96;100.00
3178;BME280;38141;42.666;23.344;2023-09-19T03:35:01;95000.31;;;17.16;100.00
3178;BME280;38141;42.666;23.344;2023-09-19T03:37:30;95004.59;;;17.17;100.00
3178;BME280;38141;42.666;23.344;2023-09-19T03:39:58;94926.16;;;16.67;100.00
3178;BME280;38141;42.666;23.344;2023-09-19T03:42:25;95001.81;;;16.97;100.00
3178;BME280;38141;42.666;23.344;2023-09-19T03:44:53;94968.84;;;16.84;100.00
3178;BME280;38141;42.666;23.344;2023-09-19T03:47:21;95017.66;;;17.06;100.00
3178;BME280;38141;42.666;23.344;2023-09-19T03:49:48;95009.09;;;17.04;100.00
3178;BME280;38141;42.666;23.344;2023-09-19T03:52:15;94972.56;;;16.71;100.00
3178;BME280;38141;42.666;23.344;2023-09-19T03:54:42;94961.78;;;16.60;100.00
3178;BME280;38141;42.666;23.344;2023-09-19T03:57:10;95020.53;;;16.99;100.00
3178;BME280;38141;42.666;23.344;2023-09-19T03:59:41;95026.28;;;17.04;100.00
3178;BME280;38141;42.666;23.344;2023-09-19T04:02:10;95040.41;;;16.99;100.00
3178;BME280;38141;42.666;23.344;2023-09-19T04:04:47;94969.72;;;16.51;100.00
3178;BME280;38141;42.666;23.344;2023-09-19T04:07:37;95021.22;;;16.79;100.00
3178;BME280;38141;42.666;23.344;2023-09-19T04:10:05;94935.06;;;16.21;100.00
3178;BME280;38141;42.666;23.344;2023-09-19T04:12:34;94984.97;;;16.49;100.00
3178;BME280;38141;42.666;23.344;2023-09-19T04:15:01;94943.78;;;16.36;100.00
3178;BME280;38141;42.666;23.344;2023-09-19T04:20:39;95044.50;;;16.87;100.00
3178;BME280;38141;42.666;23.344;2023-09-19T04:23:10;95057.81;;;17.12;100.00
3178;BME280;38141;42.666;23.344;2023-09-19T04:25:45;94963.41;;;16.58;100.00
3178;BME280;38141;42.666;23.344;2023-09-19T04:28:14;95027.28;;;17.14;100.00
3178;BME280;38141;42.666;23.344;2023-09-19T04:30:46;95040.84;;;17.44;100.00
3178;BME280;38141;42.666;23.344;2023-09-19T04:33:21;94982.00;;;17.56;100.00
3178;BME280;38141;42.666;23.344;2023-09-19T04:36:08;95026.16;;;18.56;100.00
3178;BME280;38141;42.666;23.344;2023-09-19T04:38:35;94923.56;;;18.21;100.00
3178;BME280;38141;42.666;23.344;2023-09-19T04:41:04;95014.88;;;19.51;100.00
3178;BME280;38141;42.666;23.344;2023-09-19T04:43:31;94974.56;;;19.77;100.00
3178;BME280;38141;42.666;23.344;2023-09-19T04:45:58;94992.31;;;20.30;98.28
3178;BME280;38141;42.666;23.344;2023-09-19T04:48:26;94960.19;;;19.28;100.00
3178;BME280;38141;42.666;23.344;2023-09-19T04:50:54;95030.56;;;19.51;100.00
3178;BME280;38141;42.666;23.344;2023-09-19T04:53:23;94955.22;;;19.23;100.00
3178;BME280;38141;42.666;23.344;2023-09-19T04:55:52;94981.84;;;19.55;100.00
3178;BME280;38141;42.666;23.344;2023-09-19T04:58:21;94948.63;;;20.07;95.92
3178;BME280;38141;42.666;23.344;2023-09-19T05:00:48;94959.22;;;20.59;93.43
3178;BME280;38141;42.666;23.344;2023-09-19T05:03:17;94976.56;;;21.19;87.15
3178;BME280;38141;42.666;23.344;2023-09-19T05:05:51;94992.06;;;21.39;86.27
3178;BME280;38141;42.666;23.344;2023-09-19T05:42:41;94960.91;;;24.54;62.63
3178;BME280;38141;42.666;23.344;2023-09-19T05:45:09;95007.53;;;25.54;59.46
3178;BME280;38141;42.666;23.344;2023-09-19T05:47:38;94972.84;;;25.35;59.77
3178;BME280;38141;42.666;23.344;2023-09-19T05:52:37;94965.06;;;24.50;61.92
3178;BME280;38141;42.666;23.344;2023-09-19T05:57:41;94947.78;;;24.04;63.60
3178;BME280;38141;42.666;23.344;2023-09-19T06:00:10;94960.34;;;24.32;62.94
3178;BME280;38141;42.666;23.344;2023-09-19T06:07:47;94927.34;;;24.70;60.97
3178;BME280;38141;42.666;23.344;2023-09-19T06:10:15;94969.19;;;24.63;62.88
3178;BME280;38141;42.666;23.344;2023-09-19T06:30:46;94974.50;;;26.04;56.23
3178;BME280;38141;42.666;23.344;2023-09-19T06:33:13;94903.72;;;25.94;55.68
3178;BME280;38141;42.666;23.344;2023-09-19T06:35:41;94916.00;;;26.46;54.58
3178;BME280;38141;42.666;23.344;2023-09-19T06:38:10;94957.31;;;26.15;55.18
3178;BME280;38141;42.666;23.344;2023-09-19T06:40:38;94975.56;;;27.09;53.12
3178;BME280;38141;42.666;23.344;2023-09-19T06:43:10;94959.28;;;25.99;56.15
3178;BME280;38141;42.666;23.344;2023-09-19T06:45:37;94927.50;;;26.24;54.54
3178;BME280;38141;42.666;23.344;2023-09-19T06:48:06;94966.03;;;26.22;55.87
3178;BME280;38141;42.666;23.344;2023-09-19T06:50:43;94963.22;;;25.45;56.84
3178;BME280;38141;42.666;23.344;2023-09-19T06:53:11;94927.22;;;25.45;56.51
3178;BME280;38141;42.666;23.344;2023-09-19T06:55:38;94925.28;;;25.13;57.10
3178;BME280;38141;42.666;23.344;2023-09-19T06:58:05;94932.06;;;24.37;59.52
3178;BME280;38141;42.666;23.344;2023-09-19T07:00:33;94958.34;;;24.42;61.23
3178;BME280;38141;42.666;23.344;2023-09-19T07:03:03;94906.22;;;24.49;59.48
3178;BME280;38141;42.666;23.344;2023-09-19T07:05:35;94963.69;;;24.96;59.81
3178;BME280;38141;42.666;23.344;2023-09-19T07:08:06;94989.69;;;25.55;58.82
3178;BME280;38141;42.666;23.344;2023-09-19T07:10:33;94949.81;;;25.29;58.33
3178;BME280;38141;42.666;23.344;2023-09-19T07:13:01;94971.38;;;25.25;58.89
3178;BME280;38141;42.666;23.344;2023-09-19T07:15:31;94972.53;;;25.09;58.63
3178;BME280;38141;42.666;23.344;2023-09-19T07:18:01;94951.16;;;24.68;58.45
3178;BME280;38141;42.666;23.344;2023-09-19T07:20:28;94935.31;;;25.10;58.36
3178;BME280;38141;42.666;23.344;2023-09-19T07:23:01;94980.22;;;25.14;59.71
3178;BME280;38141;42.666;23.344;2023-09-19T07:25:29;94940.19;;;24.83;59.19
3178;BME280;38141;42.666;23.344;2023-09-19T07:27:56;94994.22;;;25.44;58.28
3178;BME280;38141;42.666;23.344;2023-09-19T07:30:25;94986.66;;;25.20;58.85
3178;BME280;38141;42.666;23.344;2023-09-19T07:33:11;94983.78;;;24.64;60.61
3178;BME280;38141;42.666;23.344;2023-09-19T07:35:38;94952.22;;;24.38;61.14
3178;BME280;38141;42.666;23.344;2023-09-19T07:38:08;94929.38;;;24.61;60.14
3178;BME280;38141;42.666;23.344;2023-09-19T07:40:42;94980.75;;;24.95;59.54
3178;BME280;38141;42.666;23.344;2023-09-19T07:43:09;94952.56;;;25.05;58.99
3178;BME280;38141;42.666;23.344;2023-09-19T07:45:36;94930.44;;;25.29;58.96
3178;BME280;38141;42.666;23.344;2023-09-19T07:48:04;94916.22;;;24.89;59.89
3178;BME280;38141;42.666;23.344;2023-09-19T07:50:39;94891.38;;;24.70;59.59
3178;BME280;38141;42.666;23.344;2023-09-19T07:53:10;94987.47;;;25.36;59.28
3178;BME280;38141;42.666;23.344;2023-09-19T07:55:40;94958.19;;;25.44;58.77
3178;BME280;38141;42.666;23.344;2023-09-19T07:58:07;94892.56;;;25.26;58.09
3178;BME280;38141;42.666;23.344;2023-09-19T08:00:34;94980.13;;;25.95;57.75
3178;BME280;38141;42.666;23.344;2023-09-19T08:03:02;94966.06;;;26.51;55.34
3178;BME280;38141;42.666;23.344;2023-09-19T08:05:31;94949.28;;;26.61;54.51
3178;BME280;38141;42.666;23.344;2023-09-19T08:08:01;94951.34;;;26.80;54.41
3178;BME280;38141;42.666;23.344;2023-09-19T08:10:30;94925.72;;;26.12;55.11
3178;BME280;38141;42.666;23.344;2023-09-19T08:13:00;94961.56;;;26.25;55.66
3178;BME280;38141;42.666;23.344;2023-09-19T08:15:29;94953.50;;;26.41;54.81
3178;BME280;38141;42.666;23.344;2023-09-19T08:18:03;94972.38;;;26.37;55.29
3178;BME280;38141;42.666;23.344;2023-09-19T08:20:31;94933.50;;;26.52;54.07
3178;BME280;38141;42.666;23.344;2023-09-19T08:22:58;94903.25;;;25.95;54.64
3178;BME280;38141;42.666;23.344;2023-09-19T08:25:25;94945.09;;;26.36;54.56
3178;BME280;38141;42.666;23.344;2023-09-19T08:27:54;94936.16;;;26.02;54.94
3178;BME280;38141;42.666;23.344;2023-09-19T08:30:23;94962.09;;;26.87;54.12
3178;BME280;38141;42.666;23.344;2023-09-19T08:32:57;94956.31;;;27.61;51.98
3178;BME280;38141;42.666;23.344;2023-09-19T08:35:24;94945.25;;;28.64;49.54
3178;BME280;38141;42.666;23.344;2023-09-19T08:37:51;94951.13;;;29.34;47.64
3178;BME280;38141;42.666;23.344;2023-09-19T08:40:19;94933.88;;;28.93;47.86
3178;BME280;38141;42.666;23.344;2023-09-19T08:42:55;94985.28;;;28.41;48.85
3178;BME280;38141;42.666;23.344;2023-09-19T08:45:24;94926.66;;;29.18;47.27
3178;BME280;38141;42.666;23.344;2023-09-19T08:48:00;94893.78;;;28.85;47.32
3178;BME280;38141;42.666;23.344;2023-09-19T08:50:30;94968.28;;;30.45;45.47
3178;BME280;38141;42.666;23.344;2023-09-19T08:53:01;94943.91;;;30.63;44.22
3178;BME280;38141;42.666;23.344;2023-09-19T08:55:28;94966.25;;;29.76;46.17
3178;BME280;38141;42.666;23.344;2023-09-19T08:58:00;94951.19;;;30.27;44.86
3178;BME280;38141;42.666;23.344;2023-09-19T09:00:28;94911.31;;;30.04;44.58
3178;BME280;38141;42.666;23.344;2023-09-19T09:02:56;94944.84;;;30.15;44.67
3178;BME280;38141;42.666;23.344;2023-09-19T09:05:27;94955.50;;;30.17;44.40
3178;BME280;38141;42.666;23.344;2023-09-19T09:07:55;94911.97;;;29.71;45.27
3178;BME280;38141;42.666;23.344;2023-09-19T09:10:23;94924.03;;;28.41;47.34
3178;BME280;38141;42.666;23.344;2023-09-19T09:12:52;94874.22;;;28.11;47.65
3178;BME280;38141;42.666;23.344;2023-09-19T09:15:22;94885.25;;;28.32;47.39
3178;BME280;38141;42.666;23.344;2023-09-19T09:17:51;94944.19;;;28.56;47.86
3178;BME280;38141;42.666;23.344;2023-09-19T09:20:19;94908.41;;;29.65;45.16
3178;BME280;38141;42.666;23.344;2023-09-19T09:22:53;94939.28;;;31.32;42.96
3178;BME280;38141;42.666;23.344;2023-09-19T09:25:21;94944.81;;;31.60;41.72
3178;BME280;38141;42.666;23.344;2023-09-19T09:27:58;94918.22;;;30.31;43.11
3178;BME280;38141;42.666;23.344;2023-09-19T09:30:35;94892.59;;;30.71;42.46
3178;BME280;38141;42.666;23.344;2023-09-19T09:33:09;94880.16;;;30.72;42.07
3178;BME280;38141;42.666;23.344;2023-09-19T09:35:38;94920.31;;;30.47;42.35
3178;BME280;38141;42.666;23.344;2023-09-19T09:38:16;94926.25;;;29.90;44.27
3178;BME280;38141;42.666;23.344;2023-09-19T09:40:48;94909.56;;;28.99;46.01
3178;BME280;38141;42.666;23.344;2023-09-19T09:43:27;94909.94;;;29.66;44.68
3178;BME280;38141;42.666;23.344;2023-09-19T09:46:13;94908.28;;;29.96;44.29
3178;BME280;38141;42.666;23.344;2023-09-19T09:48:59;94900.47;;;30.34;43.85
3178;BME280;38141;42.666;23.344;2023-09-19T09:51:57;94902.19;;;30.03;43.45
3178;BME280;38141;42.666;23.344;2023-09-19T09:54:37;94918.09;;;29.86;44.35
3178;BME280;38141;42.666;23.344;2023-09-19T09:57:05;94870.78;;;30.53;42.98
3178;BME280;38141;42.666;23.344;2023-09-19T09:59:44;94887.88;;;29.74;44.63
3178;BME280;38141;42.666;23.344;2023-09-19T10:02:15;94877.59;;;30.19;44.09
3178;BME280;38141;42.666;23.344;2023-09-19T10:04:48;94896.44;;;29.53;45.31
3178;BME280;38141;42.666;23.344;2023-09-19T10:07:28;94892.06;;;28.93;46.85
3178;BME280;38141;42.666;23.344;2023-09-19T10:09:58;94856.59;;;28.88;46.52
3178;BME280;38141;42.666;23.344;2023-09-19T10:12:31;94906.22;;;28.27;47.65
3178;BME280;38141;42.666;23.344;2023-09-19T10:15:00;94882.00;;;28.07;47.77
3178;BME280;38141;42.666;23.344;2023-09-19T10:17:33;94864.97;;;27.74;49.07
3178;BME280;38141;42.666;23.344;2023-09-19T10:20:01;94895.78;;;28.79;47.51
3178;BME280;38141;42.666;23.344;2023-09-19T10:22:59;94908.47;;;28.86;47.26
3178;BME280;38141;42.666;23.344;2023-09-19T10:25:28;94819.88;;;28.16;47.21
3178;BME280;38141;42.666;23.344;2023-09-19T10:27:57;94814.94;;;28.05;47.92
3178;BME280;38141;42.666;23.344;2023-09-19T10:30:29;94883.22;;;28.63;47.52
3178;BME280;38141;42.666;23.344;2023-09-19T10:33:02;94799.16;;;27.65;48.86
3178;BME280;38141;42.666;23.344;2023-09-19T10:35:32;94851.22;;;27.65;49.04
3178;BME280;38141;42.666;23.344;2023-09-19T10:38:01;94798.50;;;26.69;50.82
3178;BME280;38141;42.666;23.344;2023-09-19T10:40:32;94844.50;;;26.76;51.43
3178;BME280;38141;42.666;23.344;2023-09-19T10:43:03;94842.31;;;26.80;52.22
3178;BME280;38141;42.666;23.344;2023-09-19T10:45:32;94874.91;;;27.40;50.76
3178;BME280;38141;42.666;23.344;2023-09-19T10:48:02;94821.34;;;26.44;52.37
3178;BME280;38141;42.666;23.344;2023-09-19T10:50:35;94824.16;;;26.99;51.70
3178;BME280;38141;42.666;23.344;2023-09-19T10:53:05;94831.66;;;27.33;50.65
3178;BME280;38141;42.666;23.344;2023-09-19T10:55:34;94851.97;;;27.45;50.08
3178;BME280;38141;42.666;23.344;2023-09-19T10:58:02;94850.84;;;27.77;49.55
3178;BME280;38141;42.666;23.344;2023-09-19T11:00:51;94831.91;;;28.07;48.25
3178;BME280;38141;42.666;23.344;2023-09-19T11:03:21;94857.06;;;28.50;48.73
3178;BME280;38141;42.666;23.344;2023-09-19T11:06:06;94849.69;;;28.47;48.25
3178;BME280;38141;42.666;23.344;2023-09-19T11:09:01;94848.94;;;27.43;50.13
3178;BME280;38141;42.666;23.344;2023-09-19T11:11:49;94849.78;;;27.49;50.95
3178;BME280;38141;42.666;23.344;2023-09-19T11:14:44;94841.09;;;28.13;49.54
3178;BME280;38141;42.666;23.344;2023-09-19T11:17:41;94844.38;;;28.43;48.67
3178;BME280;38141;42.666;23.344;2023-09-19T11:20:22;94854.00;;;28.85;47.38
3178;BME280;38141;42.666;23.344;2023-09-19T11:23:22;94825.22;;;28.56;47.46
3178;BME280;38141;42.666;23.344;2023-09-19T11:25:50;94799.91;;;28.60;46.96
3178;BME280;38141;42.666;23.344;2023-09-19T11:28:34;94776.63;;;28.63;46.80
3178;BME280;38141;42.666;23.344;2023-09-19T11:34:40;94825.72;;;28.97;46.94
3178;BME280;38141;42.666;23.344;2023-09-19T11:40:47;94732.69;;;27.67;49.29
3178;BME280;38141;42.666;23.344;2023-09-19T11:43:30;94773.66;;;27.98;49.36
3178;BME280;38141;42.666;23.344;2023-09-19T11:46:05;94768.03;;;28.18;49.22
3178;BME280;38141;42.666;23.344;2023-09-19T11:48:33;94762.34;;;28.39;47.88
3178;BME280;38141;42.666;23.344;2023-09-19T11:51:17;94781.28;;;28.71;47.88
3178;BME280;38141;42.666;23.344;2023-09-19T11:53:53;94725.88;;;28.00;49.02
3178;BME280;38141;42.666;23.344;2023-09-19T11:56:22;94774.19;;;28.02;48.85
3178;BME280;38141;42.666;23.344;2023-09-19T11:58:52;94777.84;;;28.51;48.26
3178;BME280;38141;42.666;23.344;2023-09-19T12:01:22;94793.09;;;28.61;49.04
3178;BME280;38141;42.666;23.344;2023-09-19T12:03:53;94792.44;;;28.35;49.85
3178;BME280;38141;42.666;23.344;2023-09-19T12:06:22;94751.78;;;27.80;49.89
3178;BME280;38141;42.666;23.344;2023-09-19T12:08:50;94752.94;;;28.36;48.29
3178;BME280;38141;42.666;23.344;2023-09-19T12:11:19;94782.13;;;27.83;49.25
3178;BME280;38141;42.666;23.344;2023-09-19T12:13:50;94782.97;;;27.95;49.73
3178;BME280;38141;42.666;23.344;2023-09-19T12:16:19;94742.72;;;28.16;48.95
3178;BME280;38141;42.666;23.344;2023-09-19T12:18:49;94759.09;;;28.99;47.40
3178;BME280;38141;42.666;23.344;2023-09-19T12:21:24;94767.66;;;28.85;47.71
3178;BME280;38141;42.666;23.344;2023-09-19T12:24:01;94717.16;;;28.18;48.67
3178;BME280;38141;42.666;23.344;2023-09-19T12:26:38;94771.47;;;28.87;48.48
3178;BME280;38141;42.666;23.344;2023-09-19T12:29:12;94748.00;;;29.05;47.59
3178;BME280;38141;42.666;23.344;2023-09-19T12:31:53;94764.22;;;29.12;47.66
3178;BME280;38141;42.666;23.344;2023-09-19T12:34:24;94758.47;;;29.32;47.63
3178;BME280;38141;42.666;23.344;2023-09-19T12:37:06;94741.03;;;28.72;48.19
3178;BME280;38141;42.666;23.344;2023-09-19T12:39:38;94747.88;;;28.77;48.16
3178;BME280;38141;42.666;23.344;2023-09-19T12:42:08;94739.28;;;28.75;48.01
3178;BME280;38141;42.666;23.344;2023-09-19T12:44:37;94736.41;;;29.29;47.26
3178;BME280;38141;42.666;23.344;2023-09-19T12:47:10;94725.53;;;28.66;47.89
3178;BME280;38141;42.666;23.344;2023-09-19T12:50:09;94711.78;;;29.22;47.27
3178;BME280;38141;42.666;23.344;2023-09-19T12:52:41;94706.47;;;29.18;47.42
3178;BME280;38141;42.666;23.344;2023-09-19T12:55:20;94746.13;;;29.83;46.52
3178;BME280;38141;42.666;23.344;2023-09-19T12:58:07;94664.19;;;29.20;47.20
3178;BME280;38141;42.666;23.344;2023-09-19T13:00:37;94720.72;;;29.37;46.96
3178;BME280;38141;42.666;23.344;2023-09-19T13:03:12;94732.06;;;29.16;47.79
3178;BME280;38141;42.666;23.344;2023-09-19T13:05:51;94725.28;;;29.40;47.73
3178;BME280;38141;42.666;23.344;2023-09-19T13:08:20;94720.34;;;28.96;47.68
3178;BME280;38141;42.666;23.344;2023-09-19T13:11:04;94657.03;;;28.96;46.94
3178;BME280;38141;42.666;23.344;2023-09-19T13:13:36;94683.94;;;29.22;46.93
3178;BME280;38141;42.666;23.344;2023-09-19T13:16:04;94711.09;;;29.49;47.31
3178;BME280;38141;42.666;23.344;2023-09-19T13:18:44;94716.97;;;29.68;46.75
3178;BME280;38141;42.666;23.344;2023-09-19T13:21:12;94691.34;;;29.47;47.12
3178;BME280;38141;42.666;23.344;2023-09-19T13:23:50;94705.69;;;29.06;48.13
3178;BME280;38141;42.666;23.344;2023-09-19T13:26:17;94702.66;;;29.21;48.15
3178;BME280;38141;42.666;23.344;2023-09-19T13:28:44;94704.28;;;29.39;47.69
3178;BME280;38141;42.666;23.344;2023-09-19T13:31:15;94647.41;;;29.03;47.99
3178;BME280;38141;42.666;23.344;2023-09-19T13:33:46;94684.16;;;29.01;47.58
3178;BME280;38141;42.666;23.344;2023-09-19T13:36:14;94667.41;;;27.94;49.34
3178;BME280;38141;42.666;23.344;2023-09-19T13:38:42;94687.88;;;27.91;50.29
3178;BME280;38141;42.666;23.344;2023-09-19T13:41:09;94690.22;;;27.98;50.57
3178;BME280;38141;42.666;23.344;2023-09-19T13:43:37;94690.19;;;28.29;50.68
3178;BME280;38141;42.666;23.344;2023-09-19T13:46:04;94640.19;;;28.09;49.84
3178;BME280;38141;42.666;23.344;2023-09-19T13:48:34;94675.75;;;28.31;49.56
3178;BME280;38141;42.666;23.344;2023-09-19T13:51:02;94683.00;;;28.17;50.25
3178;BME280;38141;42.666;23.344;2023-09-19T13:53:30;94669.13;;;27.86;50.25
3178;BME280;38141;42.666;23.344;2023-09-19T13:55:57;94594.28;;;27.46;50.79
3178;BME280;38141;42.666;23.344;2023-09-19T13:58:24;94687.69;;;28.00;51.08
3178;BME280;38141;42.666;23.344;2023-09-19T14:00:52;94644.34;;;27.82;50.65
3178;BME280;38141;42.666;23.344;2023-09-19T14:03:21;94682.63;;;27.99;50.45
3178;BME280;38141;42.666;23.344;2023-09-19T14:05:49;94685.06;;;28.22;51.05
3178;BME280;38141;42.666;23.344;2023-09-19T14:08:17;94688.22;;;27.67;51.05
3178;BME280;38141;42.666;23.344;2023-09-19T14:10:44;94679.31;;;27.95;51.28
3178;BME280;38141;42.666;23.344;2023-09-19T14:13:12;94651.63;;;28.11;50.55
3178;BME280;38141;42.666;23.344;2023-09-19T14:15:40;94604.69;;;27.88;50.04
3178;BME280;38141;42.666;23.344;2023-09-19T14:18:08;94657.91;;;28.60;49.62
3178;BME280;38141;42.666;23.344;2023-09-19T14:20:38;94664.78;;;28.70;49.98
3178;BME280;38141;42.666;23.344;2023-09-19T14:23:07;94644.28;;;28.14;49.70
3178;BME280;38141;42.666;23.344;2023-09-19T14:25:34;94665.59;;;28.22;49.77
3178;BME280;38141;42.666;23.344;2023-09-19T14:28:02;94639.81;;;28.27;49.66
3178;BME280;38141;42.666;23.344;2023-09-19T14:30:29;94665.22;;;28.52;49.62
3178;BME280;38141;42.666;23.344;2023-09-19T14:32:56;94656.59;;;28.50;49.50
3178;BME280;38141;42.666;23.344;2023-09-19T14:35:23;94625.88;;;28.22;50.10
3178;BME280;38141;42.666;23.344;2023-09-19T14:37:50;94620.84;;;28.32;49.32